createdAt,value
2019-01-06T00:02:18.209Z,102209.36
2019-01-06T00:05:16.873Z,102210.30
2019-01-06T00:08:06.051Z,102214.80
2019-01-06T00:11:04.796Z,102213.06
2019-01-06T00:13:57.385Z,102217.08
2019-01-06T00:16:45.383Z,102219.16
2019-01-06T00:19:46.706Z,102218.73
2019-01-06T00:22:28.267Z,102215.41
2019-01-06T00:25:34.128Z,102212.02
2019-01-06T00:28:27.101Z,102215.78
2019-01-06T00:31:18.739Z,102207.14
2019-01-06T00:34:10.968Z,102211.80
2019-01-06T00:36:58.788Z,102221.11
2019-01-06T00:39:48.209Z,102222.53
2019-01-06T00:42:46.328Z,102224.72
2019-01-06T00:45:50.594Z,102219.05
2019-01-06T00:48:54.752Z,102218.66
2019-01-06T00:51:42.649Z,102222.29
2019-01-06T00:54:36.274Z,102221.53
2019-01-06T00:57:24.692Z,102229.92
2019-01-06T01:00:06.363Z,102229.97
2019-01-06T01:03:04.660Z,102246.31
2019-01-06T01:05:52.317Z,102250.37
2019-01-06T01:08:51.457Z,102261.86
2019-01-06T01:11:39.394Z,102257.61
2019-01-06T01:14:44.282Z,102260.70
2019-01-06T01:17:33.558Z,102263.42
2019-01-06T01:20:21.849Z,102278.82
2019-01-06T01:23:00.816Z,102285.42
2019-01-06T01:26:00.265Z,102286.84
2019-01-06T01:28:42.219Z,102285.17
2019-01-06T01:31:43.840Z,102289.02
2019-01-06T01:34:31.770Z,102284.14
2019-01-06T01:37:19.765Z,102278.25
2019-01-06T01:40:01.755Z,102286.22
2019-01-06T01:42:51.112Z,102280.84
2019-01-06T01:45:38.830Z,102281.69
2019-01-06T01:48:26.517Z,102287.89
2019-01-06T01:51:18.834Z,102294.05
2019-01-06T01:54:01.924Z,102290.08
2019-01-06T01:56:56.104Z,102297.07
2019-01-06T01:59:45.360Z,102291.06
2019-01-06T02:02:32.358Z,102296.25
2019-01-06T02:05:36.902Z,102293.27
2019-01-06T02:08:35.470Z,102303.34
2019-01-06T02:11:26.064Z,102300.31
2019-01-06T02:14:13.682Z,102295.80
2019-01-06T02:17:08.854Z,102297.50
2019-01-06T02:20:03.221Z,102299.31
2019-01-06T02:22:52.489Z,102297.58
2019-01-06T02:25:48.765Z,102300.22
2019-01-06T02:28:36.817Z,102294.92
2019-01-06T02:31:32.276Z,102294.06
2019-01-06T02:34:20.019Z,102301.06
2019-01-06T02:37:11.341Z,102300.13
2019-01-06T02:40:15.147Z,102297.38
2019-01-06T02:43:04.293Z,102299.55
2019-01-06T02:45:52.597Z,102310.77
2019-01-06T02:48:51.021Z,102308.50
2019-01-06T02:51:39.007Z,102310.29
2019-01-06T02:54:27.263Z,102317.36
2019-01-06T02:57:16.778Z,102310.44
2019-01-06T03:00:03.486Z,102304.33
2019-01-06T03:02:52.992Z,102318.06
2019-01-06T03:05:45.238Z,102311.49
2019-01-06T03:08:34.489Z,102311.86
2019-01-06T03:11:39.525Z,102312.30
2019-01-06T03:14:27.470Z,102316.28
2019-01-06T03:17:28.588Z,102305.36
2019-01-06T03:20:17.793Z,102306.71
2019-01-06T03:23:19.477Z,102301.05
2019-01-06T03:26:03.193Z,102296.67
2019-01-06T03:29:04.744Z,102299.31
2019-01-06T03:31:56.889Z,102298.00
2019-01-06T03:34:55.351Z,102301.95
2019-01-06T03:37:43.028Z,102299.70
2019-01-06T03:40:32.449Z,102298.77
2019-01-06T03:43:28.479Z,102299.64
2019-01-06T03:46:23.734Z,102291.30
2019-01-06T03:49:15.903Z,102303.06
2019-01-06T03:52:03.738Z,102300.73
2019-01-06T03:54:59.480Z,102294.73
2019-01-06T03:58:03.888Z,102295.20
2019-01-06T04:01:01.175Z,102295.08
2019-01-06T04:03:53.197Z,102300.45
2019-01-06T04:06:41.270Z,102293.02
2019-01-06T04:09:36.550Z,102288.60
2019-01-06T04:12:24.208Z,102291.64
2019-01-06T04:15:22.479Z,102296.83
2019-01-06T04:18:14.298Z,102295.67
2019-01-06T04:21:18.811Z,102296.02
2019-01-06T04:24:12.828Z,102298.27
2019-01-06T04:27:18.318Z,102297.20
2019-01-06T04:30:18.372Z,102291.46
2019-01-06T04:33:22.695Z,102285.68
2019-01-06T04:36:18.278Z,102292.86
2019-01-06T04:39:08.060Z,102286.53
2019-01-06T04:42:03.604Z,102288.73
2019-01-06T04:44:53.212Z,102295.00
2019-01-06T04:47:47.756Z,102292.27
2019-01-06T04:50:43.247Z,102284.64
2019-01-06T04:53:31.231Z,102278.05
2019-01-06T04:56:19.263Z,102277.61
2019-01-06T04:59:06.877Z,102279.38
2019-01-06T05:01:56.238Z,102274.62
2019-01-06T05:04:41.630Z,102265.37
2019-01-06T05:07:41.062Z,102274.64
2019-01-06T05:10:29.184Z,102275.95
2019-01-06T05:13:24.817Z,102283.09
2019-01-06T05:16:14.039Z,102276.22
2019-01-06T05:19:18.100Z,102273.63
2019-01-06T05:22:25.589Z,102268.93
2019-01-06T05:25:13.244Z,102281.28
2019-01-06T05:28:01.059Z,102283.57
2019-01-06T05:30:48.977Z,102284.48
2019-01-06T05:33:54.413Z,102280.53
2019-01-06T05:37:01.705Z,102280.03
2019-01-06T05:39:47.211Z,102292.75
2019-01-06T05:42:49.153Z,102297.20
2019-01-06T05:45:38.338Z,102294.33
2019-01-06T05:48:23.757Z,102302.20
2019-01-06T05:51:07.764Z,102306.16
2019-01-06T05:54:08.812Z,102313.16
2019-01-06T05:57:00.566Z,102317.03
2019-01-06T05:59:55.788Z,102319.22
2019-01-06T06:02:51.276Z,102318.77
2019-01-06T06:05:43.542Z,102321.50
2019-01-06T06:08:36.272Z,102325.53
2019-01-06T06:11:31.945Z,102330.40
2019-01-06T06:14:30.490Z,102326.91
2019-01-06T06:17:22.563Z,102330.92
2019-01-06T06:20:10.529Z,102334.87
2019-01-06T06:23:02.767Z,102341.91
2019-01-06T06:25:50.949Z,102346.30
2019-01-06T06:28:46.133Z,102359.00
2019-01-06T06:31:33.752Z,102356.83
2019-01-06T06:34:21.582Z,102365.16
2019-01-06T06:37:09.642Z,102368.64
2019-01-06T06:40:04.740Z,102365.57
2019-01-06T06:42:52.337Z,102369.96
2019-01-06T06:45:46.932Z,102371.23
2019-01-06T06:48:42.786Z,102379.17
2019-01-06T06:51:31.954Z,102382.23
2019-01-06T06:54:26.545Z,102381.33
2019-01-06T06:57:50.652Z,102373.33
2019-01-06T07:00:56.122Z,102378.03
2019-01-06T07:03:49.648Z,102378.95
2019-01-06T07:06:48.049Z,102379.37
2019-01-06T07:09:36.472Z,102390.79
2019-01-06T07:12:25.530Z,102394.19
2019-01-06T07:15:15.299Z,102402.94
2019-01-06T07:18:26.173Z,102407.80
2019-01-06T07:21:34.691Z,102411.73
2019-01-06T07:24:23.960Z,102413.06
2019-01-06T07:27:25.326Z,102411.67
2019-01-06T07:30:15.743Z,102410.28
2019-01-06T07:33:08.897Z,102413.81
2019-01-06T07:36:14.231Z,102417.81
2019-01-06T07:39:07.434Z,102418.61
2019-01-06T07:41:56.624Z,102419.17
2019-01-06T07:45:02.610Z,102426.56
2019-01-06T07:48:08.017Z,102429.23
2019-01-06T07:51:07.477Z,102430.45
2019-01-06T07:54:17.420Z,102436.90
2019-01-06T07:57:07.612Z,102436.48
2019-01-06T08:00:04.273Z,102433.47
2019-01-06T08:02:53.960Z,102433.03
2019-01-06T08:05:56.125Z,102436.95
2019-01-06T08:08:49.640Z,102440.78
2019-01-06T08:11:42.939Z,102437.69
2019-01-06T08:14:45.853Z,102437.17
2019-01-06T08:17:36.102Z,102441.55
2019-01-06T08:20:42.309Z,102436.59
2019-01-06T08:23:36.044Z,102440.50
2019-01-06T08:26:24.964Z,102438.91
2019-01-06T08:29:15.526Z,102446.38
2019-01-06T08:32:12.594Z,102455.00
2019-01-06T08:35:01.596Z,102451.44
2019-01-06T08:37:50.793Z,102452.25
2019-01-06T08:40:47.740Z,102441.82
2019-01-06T08:43:45.043Z,102440.42
2019-01-06T08:46:39.675Z,102432.41
2019-01-06T08:49:45.840Z,102426.13
2019-01-06T08:52:50.490Z,102428.30
2019-01-06T08:55:49.990Z,102436.10
2019-01-06T08:58:52.175Z,102445.27
2019-01-06T09:01:41.381Z,102446.55
2019-01-06T09:04:28.506Z,102449.70
2019-01-06T09:07:19.283Z,102440.46
2019-01-06T09:10:11.422Z,102448.15
2019-01-06T09:13:15.741Z,102443.54
2019-01-06T09:16:05.091Z,102450.44
2019-01-06T09:18:57.195Z,102448.14
2019-01-06T09:21:53.279Z,102451.98
2019-01-06T09:24:40.834Z,102453.33
2019-01-06T09:27:45.256Z,102459.01
2019-01-06T09:30:49.809Z,102464.81
2019-01-06T09:33:41.430Z,102455.69
2019-01-06T09:36:28.989Z,102451.26
2019-01-06T09:39:27.418Z,102443.48
2019-01-06T09:42:18.291Z,102453.95
2019-01-06T09:44:58.441Z,102454.69
2019-01-06T09:47:48.604Z,102455.42
2019-01-06T09:50:44.597Z,102452.33
2019-01-06T09:53:45.680Z,102446.70
2019-01-06T09:56:37.437Z,102446.16
2019-01-06T09:59:25.609Z,102444.06
2019-01-06T10:02:13.122Z,102445.97
2019-01-06T10:05:01.913Z,102436.61
2019-01-06T10:07:53.894Z,102455.05
2019-01-06T10:11:00.978Z,102455.82
2019-01-06T10:13:59.199Z,102452.05
2019-01-06T10:16:48.652Z,102452.42
2019-01-06T10:19:37.568Z,102445.84
2019-01-06T10:22:44.764Z,102451.55
2019-01-06T10:25:39.620Z,102460.83
2019-01-06T10:28:37.903Z,102457.33
2019-01-06T10:31:32.245Z,102452.79
2019-01-06T10:34:21.676Z,102451.02
2019-01-06T10:37:09.550Z,102448.00
2019-01-06T10:40:05.310Z,102447.05
2019-01-06T10:43:09.976Z,102444.24
2019-01-06T10:45:57.811Z,102432.34
2019-01-06T10:49:06.056Z,102435.15
2019-01-06T10:52:01.918Z,102434.84
2019-01-06T10:54:50.997Z,102431.98
2019-01-06T10:57:56.370Z,102431.72
2019-01-06T11:00:56.821Z,102430.64
2019-01-06T11:04:04.049Z,102433.58
2019-01-06T11:06:50.689Z,102420.06
2019-01-06T11:09:40.287Z,102427.75
2019-01-06T11:12:28.299Z,102428.58
2019-01-06T11:15:16.303Z,102430.66
2019-01-06T11:18:06.925Z,102430.66
2019-01-06T11:20:51.464Z,102420.03
2019-01-06T11:23:39.448Z,102422.12
2019-01-06T11:26:26.257Z,102427.19
2019-01-06T11:29:09.656Z,102418.59
2019-01-06T11:32:11.093Z,102413.75
2019-01-06T11:34:58.207Z,102420.70
2019-01-06T11:37:51.015Z,102415.05
2019-01-06T11:40:43.569Z,102415.26
2019-01-06T11:43:31.583Z,102411.89
2019-01-06T11:46:20.162Z,102413.02
2019-01-06T11:49:14.118Z,102418.84
2019-01-06T11:52:22.026Z,102421.48
2019-01-06T11:55:14.316Z,102422.36
2019-01-06T11:58:13.975Z,102420.03
2019-01-06T12:01:01.739Z,102406.59
2019-01-06T12:03:50.004Z,102414.09
2019-01-06T12:06:39.743Z,102410.48
2019-01-06T12:09:22.910Z,102412.91
2019-01-06T12:12:21.216Z,102409.75
2019-01-06T12:15:25.583Z,102409.74
2019-01-06T12:18:17.916Z,102402.56
2019-01-06T12:21:03.339Z,102399.18
2019-01-06T12:24:01.508Z,102393.61
2019-01-06T12:26:49.610Z,102389.94
2019-01-06T12:29:37.646Z,102390.80
2019-01-06T12:32:29.927Z,102391.31
2019-01-06T12:35:25.704Z,102389.48
2019-01-06T12:38:21.071Z,102386.28
2019-01-06T12:41:19.432Z,102378.45
2019-01-06T12:44:22.997Z,102378.05
2019-01-06T12:47:15.335Z,102370.04
2019-01-06T12:50:03.071Z,102380.20
2019-01-06T12:53:02.471Z,102380.33
2019-01-06T12:56:04.826Z,102382.08
2019-01-06T12:58:58.899Z,102386.50
2019-01-06T13:01:46.781Z,102392.63
2019-01-06T13:04:36.141Z,102394.47
2019-01-06T13:07:18.193Z,102392.18
2019-01-06T13:10:19.890Z,102393.55
2019-01-06T13:13:08.117Z,102392.69
2019-01-06T13:16:04.226Z,102392.50
2019-01-06T13:19:02.142Z,102389.66
2019-01-06T13:21:49.874Z,102391.15
2019-01-06T13:24:49.896Z,102394.62
2019-01-06T13:27:39.717Z,102396.05
2019-01-06T13:30:38.736Z,102395.55
2019-01-06T13:33:27.424Z,102398.92
2019-01-06T13:36:21.818Z,102397.34
2019-01-06T13:39:05.493Z,102393.37
2019-01-06T13:42:13.160Z,102398.31
2019-01-06T13:45:01.760Z,102393.83
2019-01-06T13:47:58.608Z,102396.78
2019-01-06T13:50:46.480Z,102392.30
2019-01-06T13:53:34.218Z,102400.16
2019-01-06T13:56:32.714Z,102407.50
2019-01-06T13:59:25.001Z,102395.70
2019-01-06T14:02:14.374Z,102392.04
2019-01-06T14:05:12.931Z,102391.02
2019-01-06T14:08:04.052Z,102399.02
2019-01-06T14:10:59.064Z,102399.19
2019-01-06T14:13:42.260Z,102396.34
2019-01-06T14:16:29.916Z,102395.11
2019-01-06T14:19:14.775Z,102390.11
2019-01-06T14:22:09.679Z,102388.20
2019-01-06T14:24:57.437Z,102386.20
2019-01-06T14:27:46.978Z,102385.55
2019-01-06T14:30:36.265Z,102389.41
2019-01-06T14:33:31.082Z,102383.69
2019-01-06T14:36:18.669Z,102392.58
2019-01-06T14:39:10.842Z,102395.77
2019-01-06T14:41:57.806Z,102396.63
2019-01-06T14:44:50.062Z,102402.00
2019-01-06T14:47:39.152Z,102401.89
2019-01-06T14:50:34.183Z,102401.02
2019-01-06T14:53:32.881Z,102398.78
2019-01-06T14:56:23.507Z,102405.00
2019-01-06T14:59:18.852Z,102398.47
2019-01-06T15:02:14.160Z,102400.66
2019-01-06T15:05:14.053Z,102393.66
2019-01-06T15:08:03.292Z,102402.05
2019-01-06T15:10:48.660Z,102399.39
2019-01-06T15:13:43.695Z,102398.57
2019-01-06T15:16:31.558Z,102403.88
2019-01-06T15:19:19.237Z,102394.08
2019-01-06T15:22:17.571Z,102396.69
2019-01-06T15:25:20.548Z,102394.03
2019-01-06T15:28:22.173Z,102396.63
2019-01-06T15:31:11.781Z,102400.26
2019-01-06T15:34:00.626Z,102397.80
2019-01-06T15:36:48.527Z,102399.89
2019-01-06T15:39:43.600Z,102407.05
2019-01-06T15:42:31.503Z,102401.73
2019-01-06T15:45:21.483Z,102407.45
2019-01-06T15:48:09.329Z,102409.24
2019-01-06T15:50:56.242Z,102407.59
2019-01-06T15:53:43.950Z,102408.80
2019-01-06T15:56:39.003Z,102397.73
2019-01-06T15:59:28.270Z,102396.86
2019-01-06T16:02:18.163Z,102406.67
2019-01-06T16:05:10.702Z,102401.41
2019-01-06T16:07:58.737Z,102408.05
2019-01-06T16:10:56.849Z,102408.88
2019-01-06T16:13:46.396Z,102398.48
2019-01-06T16:16:46.644Z,102402.00
2019-01-06T16:19:41.986Z,102409.34
2019-01-06T16:22:40.477Z,102411.27
2019-01-06T16:25:25.662Z,102415.73
2019-01-06T16:28:13.549Z,102415.88
2019-01-06T16:31:22.536Z,102416.47
2019-01-06T16:34:10.811Z,102420.45
2019-01-06T16:36:52.988Z,102418.52
2019-01-06T16:39:54.291Z,102419.59
2019-01-06T16:42:50.370Z,102420.42
2019-01-06T16:45:38.281Z,102420.98
2019-01-06T16:48:39.464Z,102418.68
2019-01-06T16:51:35.937Z,102411.06
2019-01-06T16:54:21.673Z,102415.30
2019-01-06T16:57:25.408Z,102419.64
2019-01-06T17:00:26.133Z,102418.82
2019-01-06T17:03:15.386Z,102422.39
2019-01-06T17:06:03.821Z,102416.00
2019-01-06T17:08:51.652Z,102424.95
2019-01-06T17:11:41.555Z,102418.17
2019-01-06T17:14:41.759Z,102426.36
2019-01-06T17:17:31.868Z,102423.85
2019-01-06T17:20:12.412Z,102428.80
2019-01-06T17:23:01.477Z,102423.95
2019-01-06T17:25:49.602Z,102426.09
2019-01-06T17:28:53.234Z,102421.20
2019-01-06T17:31:51.989Z,102428.76
2019-01-06T17:34:41.432Z,102423.49
2019-01-06T17:37:46.214Z,102424.46
2019-01-06T17:40:51.132Z,102423.14
2019-01-06T17:43:39.620Z,102430.30
2019-01-06T17:46:27.475Z,102430.30
2019-01-06T17:49:11.657Z,102424.06
2019-01-06T17:52:03.892Z,102428.92
2019-01-06T17:55:07.063Z,102434.98
2019-01-06T17:57:56.367Z,102435.50
2019-01-06T18:00:45.171Z,102422.42
2019-01-06T18:03:34.296Z,102435.03
2019-01-06T18:06:18.073Z,102429.00
2019-01-06T18:09:16.904Z,102426.75
2019-01-06T18:12:06.270Z,102432.58
2019-01-06T18:14:54.412Z,102436.46
2019-01-06T18:17:51.710Z,102436.00
2019-01-06T18:20:48.641Z,102435.55
2019-01-06T18:23:40.215Z,102439.98
2019-01-06T18:26:29.819Z,102434.77
2019-01-06T18:29:31.101Z,102435.08
2019-01-06T18:32:18.870Z,102434.94
2019-01-06T18:35:08.371Z,102439.16
2019-01-06T18:38:13.119Z,102431.83
2019-01-06T18:40:59.069Z,102435.48
2019-01-06T18:43:47.482Z,102439.16
2019-01-06T18:46:51.843Z,102433.74
2019-01-06T18:49:50.043Z,102432.14
2019-01-06T18:52:48.161Z,102427.56
2019-01-06T18:55:46.949Z,102435.59
2019-01-06T18:58:35.100Z,102433.87
2019-01-06T19:01:28.255Z,102438.94
2019-01-06T19:04:15.972Z,102441.72
2019-01-06T19:07:04.709Z,102440.95
2019-01-06T19:09:50.198Z,102431.86
2019-01-06T19:12:39.986Z,102430.95
2019-01-06T19:15:29.440Z,102430.54
2019-01-06T19:18:18.712Z,102431.39
2019-01-06T19:21:23.161Z,102434.92
2019-01-06T19:24:18.637Z,102433.89
2019-01-06T19:27:07.903Z,102434.36
2019-01-06T19:29:55.697Z,102429.26
2019-01-06T19:32:45.030Z,102428.39
2019-01-06T19:35:40.314Z,102428.90
2019-01-06T19:38:28.531Z,102425.83
2019-01-06T19:41:17.860Z,102423.08
2019-01-06T19:44:14.621Z,102427.47
2019-01-06T19:47:02.878Z,102424.67
2019-01-06T19:49:52.776Z,102431.31
2019-01-06T19:52:40.515Z,102428.59
2019-01-06T19:55:38.636Z,102425.49
2019-01-06T19:58:36.952Z,102418.53
2019-01-06T20:01:29.763Z,102426.34
2019-01-06T20:04:19.178Z,102426.24
2019-01-06T20:07:12.005Z,102419.36
2019-01-06T20:10:02.313Z,102423.44
2019-01-06T20:12:51.663Z,102419.45
2019-01-06T20:15:39.626Z,102425.64
2019-01-06T20:18:32.023Z,102417.26
2019-01-06T20:21:36.606Z,102421.20
2019-01-06T20:24:24.537Z,102426.00
2019-01-06T20:27:05.635Z,102418.44
2019-01-06T20:30:06.928Z,102415.78
2019-01-06T20:32:59.558Z,102425.47
2019-01-06T20:35:51.954Z,102427.27
2019-01-06T20:38:47.432Z,102426.75
2019-01-06T20:41:42.766Z,102425.88
2019-01-06T20:44:35.127Z,102432.02
2019-01-06T20:47:25.255Z,102426.66
2019-01-06T20:50:12.940Z,102427.11
2019-01-06T20:53:11.533Z,102432.13
2019-01-06T20:55:59.850Z,102428.25
2019-01-06T20:58:56.060Z,102424.27
2019-01-06T21:01:44.146Z,102426.70
2019-01-06T21:04:35.797Z,102429.09
2019-01-06T21:07:24.541Z,102428.12
2019-01-06T21:10:20.278Z,102424.30
2019-01-06T21:13:10.291Z,102430.85
2019-01-06T21:16:05.697Z,102433.46
2019-01-06T21:18:55.168Z,102432.98
2019-01-06T21:21:40.768Z,102426.66
2019-01-06T21:24:39.812Z,102429.81
2019-01-06T21:27:28.512Z,102427.88
2019-01-06T21:30:23.918Z,102434.27
2019-01-06T21:33:13.274Z,102434.22
2019-01-06T21:36:01.181Z,102435.44
2019-01-06T21:38:51.459Z,102439.78
2019-01-06T21:41:55.763Z,102444.67
2019-01-06T21:45:04.195Z,102437.02
2019-01-06T21:48:04.300Z,102434.30
2019-01-06T21:50:52.741Z,102427.66
2019-01-06T21:53:54.502Z,102436.09
2019-01-06T21:56:45.279Z,102432.97
2019-01-06T21:59:26.427Z,102428.75
2019-01-06T22:02:28.771Z,102429.45
2019-01-06T22:05:21.045Z,102426.52
2019-01-06T22:08:20.781Z,102420.59
2019-01-06T22:11:11.012Z,102420.05
2019-01-06T22:13:59.534Z,102417.30
2019-01-06T22:16:49.012Z,102413.02
2019-01-06T22:19:40.380Z,102411.80
2019-01-06T22:22:32.996Z,102417.93
2019-01-06T22:25:23.330Z,102417.52
2019-01-06T22:28:26.747Z,102410.88
2019-01-06T22:31:15.031Z,102410.88
2019-01-06T22:34:03.297Z,102416.84
2019-01-06T22:37:08.379Z,102409.91
2019-01-06T22:39:56.213Z,102407.30
2019-01-06T22:42:43.636Z,102408.34
2019-01-06T22:45:38.250Z,102407.98
2019-01-06T22:48:36.505Z,102401.39
2019-01-06T22:51:24.600Z,102403.13
2019-01-06T22:54:12.381Z,102400.06
2019-01-06T22:57:00.490Z,102394.98
2019-01-06T22:59:48.671Z,102398.98
2019-01-06T23:02:51.594Z,102396.30
2019-01-06T23:05:39.268Z,102404.23
2019-01-06T23:08:27.082Z,102403.95
2019-01-06T23:11:22.202Z,102403.64
2019-01-06T23:14:12.372Z,102397.13
2019-01-06T23:17:10.674Z,102395.95
2019-01-06T23:20:09.465Z,102399.30
2019-01-06T23:23:11.761Z,102399.37
2019-01-06T23:25:59.767Z,102405.15
2019-01-06T23:29:04.695Z,102398.40
2019-01-06T23:31:50.924Z,102398.40
2019-01-06T23:34:49.342Z,102387.00
2019-01-06T23:37:41.889Z,102387.88
2019-01-06T23:40:42.512Z,102388.28
2019-01-06T23:43:30.050Z,102397.58
2019-01-06T23:46:22.326Z,102388.48
2019-01-06T23:49:06.848Z,102387.56
2019-01-06T23:51:50.154Z,102388.38
2019-01-06T23:54:37.868Z,102391.67
2019-01-06T23:57:36.558Z,102392.78
